Time;durP1;ratioP1;P1;durP2;ratioP2;P2;SDS_P1;SDS_P2;PMS_P1;PMS_P2;Temp;Humidity;BMP_temperature;BMP_pressure;BME280_temperature;BME280_humidity;BME280_pressure;Samples;Min_cycle;Max_cycle;Signal;HPM_P1;HPM_P2
2021/03/18 00:00:45;;;;;;;113.68;17.63;;;;;;;0.59;79.80;102487.28;5017346;28;20114;-74
2021/03/18 00:03:13;;;;;;;52.78;11.57;;;;;;;0.73;78.54;102484.22;5015207;28;20033;-75
2021/03/18 00:05:39;;;;;;;82.25;14.32;;;;;;;0.68;78.78;102482.94;5002933;28;20103;-79
2021/03/18 00:08:05;;;;;;;45.70;11.27;;;;;;;0.75;77.85;102473.50;5018165;28;20029;-78
2021/03/18 00:10:31;;;;;;;53.92;12.40;;;;;;;0.29;83.38;102491.69;5018927;28;20040;-74
2021/03/18 00:12:56;;;;;;;88.30;15.23;;;;;;;0.27;82.74;102498.94;5018028;28;21120;-76
2021/03/18 00:15:23;;;;;;;49.40;11.93;;;;;;;0.41;81.08;102504.75;5018037;28;21125;-79
2021/03/18 00:17:49;;;;;;;50.25;12.52;;;;;;;0.50;80.96;102490.72;5004045;28;21993;-74
2021/03/18 00:20:15;;;;;;;39.58;10.32;;;;;;;0.28;82.66;102491.84;5020808;28;20030;-74
2021/03/18 00:22:42;;;;;;;26.27;9.32;;;;;;;0.40;81.70;102489.91;5005037;28;20037;-75
2021/03/18 00:25:10;;;;;;;53.45;11.57;;;;;;;0.33;81.88;102486.16;5022908;28;20079;-74
2021/03/18 00:27:37;;;;;;;37.88;11.15;;;;;;;0.23;82.67;102488.78;5004870;28;20037;-77
2021/03/18 00:30:04;;;;;;;71.10;15.80;;;;;;;0.32;81.64;102485.31;5020391;28;20052;-74
2021/03/18 00:32:30;;;;;;;61.63;14.95;;;;;;;0.20;82.57;102486.44;5005135;28;20156;-74
2021/03/18 00:34:55;;;;;;;43.05;12.13;;;;;;;0.29;81.94;102491.69;5019177;28;20033;-74
2021/03/18 00:37:21;;;;;;;58.90;14.55;;;;;;;0.37;81.09;102487.56;5019060;28;20059;-78
2021/03/18 00:39:46;;;;;;;53.10;15.15;;;;;;;0.44;80.48;102478.94;5019241;28;20041;-74
2021/03/18 00:42:12;;;;;;;59.03;16.67;;;;;;;0.49;80.19;102473.25;5020088;28;20095;-75
2021/03/18 00:44:37;;;;;;;216.20;25.88;;;;;;;0.24;81.66;102477.28;5020058;28;20036;-74
2021/03/18 00:47:03;;;;;;;171.68;23.52;;;;;;;0.21;82.05;102469.66;5019868;28;20035;-76
2021/03/18 00:49:28;;;;;;;96.28;20.85;;;;;;;0.19;82.98;102469.78;5020455;28;20047;-77
2021/03/18 00:51:54;;;;;;;187.57;26.20;;;;;;;-0.20;86.13;102462.78;5021084;28;20148;-74
2021/03/18 00:54:20;;;;;;;152.40;24.42;;;;;;;-0.03;84.14;102464.75;5018576;28;20025;-77
2021/03/18 00:56:45;;;;;;;105.47;19.95;;;;;;;0.04;83.49;102455.34;5021289;28;20033;-74
2021/03/18 00:59:11;;;;;;;188.52;24.45;;;;;;;0.04;83.75;102455.34;5019658;28;20027;-74
2021/03/18 01:01:37;;;;;;;330.50;34.30;;;;;;;-0.01;84.20;102452.28;5004450;28;20033;-75
2021/03/18 01:04:04;;;;;;;100.53;20.02;;;;;;;-0.07;84.77;102455.47;5004096;28;20029;-75
2021/03/18 01:06:30;;;;;;;195.18;26.20;;;;;;;0.04;83.69;102458.00;5000329;28;20063;-74
2021/03/18 01:08:57;;;;;;;210.32;27.98;;;;;;;-0.24;86.62;102456.13;5004567;28;20030;-75
2021/03/18 01:11:26;;;;;;;135.70;26.95;;;;;;;-0.02;84.07;102461.16;5020272;28;20038;-78
2021/03/18 01:13:55;;;;;;;162.93;26.15;;;;;;;0.04;84.53;102460.63;5019895;28;20133;-77
2021/03/18 01:16:24;;;;;;;261.73;34.60;;;;;;;-0.03;84.68;102462.94;5005236;28;20173;-76
2021/03/18 01:18:57;;;;;;;209.13;29.33;;;;;;;-0.35;87.16;102465.00;5021549;28;20116;-75
2021/03/18 01:21:36;;;;;;;305.77;41.05;;;;;;;-0.38;87.08;102465.22;5019098;28;20017;-74
2021/03/18 01:24:03;;;;;;;200.80;30.17;;;;;;;-0.47;88.20;102463.41;5017183;28;20170;-74
2021/03/18 01:26:29;;;;;;;78.97;20.33;;;;;;;-0.28;85.96;102455.56;5015972;28;20033;-76
2021/03/18 01:28:54;;;;;;;229.57;30.60;;;;;;;-0.26;85.78;102452.78;4998558;28;20083;-74
2021/03/18 01:31:20;;;;;;;286.27;35.15;;;;;;;-0.15;84.37;102450.88;5020008;28;20030;-78
2021/03/18 01:33:46;;;;;;;174.73;25.23;;;;;;;-0.41;87.00;102455.81;5003801;28;20064;-74
2021/03/18 01:36:12;;;;;;;157.55;24.30;;;;;;;-0.19;84.93;102453.91;5019194;28;20029;-75
2021/03/18 01:38:43;;;;;;;161.02;21.15;;;;;;;-0.13;84.45;102448.94;5016689;28;20056;-76
2021/03/18 01:41:09;;;;;;;315.88;35.70;;;;;;;-0.25;85.41;102444.75;5021162;28;20111;-74
2021/03/18 01:43:34;;;;;;;143.52;23.15;;;;;;;-0.10;83.94;102442.56;5022113;28;20025;-76
2021/03/18 01:46:00;;;;;;;235.88;32.45;;;;;;;-0.02;83.71;102445.34;5020716;28;20024;-75
2021/03/18 01:48:26;;;;;;;126.50;22.48;;;;;;;-0.06;84.30;102438.69;5003973;28;20064;-75
2021/03/18 01:50:52;;;;;;;347.83;36.17;;;;;;;-0.29;86.11;102437.28;4999099;28;20962;-78
2021/03/18 01:53:23;;;;;;;226.45;28.05;;;;;;;-0.32;85.91;102439.22;5018913;28;20060;-77
2021/03/18 01:55:51;;;;;;;331.65;36.63;;;;;;;-0.41;87.43;102437.38;5002365;28;20032;-74
2021/03/18 01:58:17;;;;;;;277.65;34.00;;;;;;;-0.28;86.17;102437.13;5017768;28;20058;-74
2021/03/18 02:00:46;;;;;;;221.63;29.58;;;;;;;-0.42;87.48;102429.59;5017511;28;20476;-76
2021/03/18 02:03:12;;;;;;;156.90;26.13;;;;;;;-0.43;87.00;102430.56;5016349;28;20032;-75
2021/03/18 02:05:38;;;;;;;247.55;29.50;;;;;;;-0.35;86.75;102434.22;5001242;28;20082;-74
2021/03/18 02:08:04;;;;;;;369.08;38.50;;;;;;;-0.33;86.79;102427.00;5018128;28;20036;-77
2021/03/18 02:10:34;;;;;;;223.70;30.75;;;;;;;-0.67;88.63;102428.28;5017501;28;20715;-75
2021/03/18 02:13:00;;;;;;;272.98;31.38;;;;;;;-0.58;89.17;102430.13;5017694;28;20032;-74
2021/03/18 02:15:33;;;;;;;394.20;39.97;;;;;;;-0.73;89.32;102434.06;5017428;28;20034;-75
2021/03/18 02:18:12;;;;;;;76.95;20.60;;;;;;;-0.44;86.98;102434.19;5016354;28;20120;-74
2021/03/18 02:20:56;;;;;;;294.77;34.20;;;;;;;-0.24;85.87;102429.78;5018413;28;20021;-77
2021/03/18 02:23:37;;;;;;;281.98;31.77;;;;;;;-0.19;84.89;102428.41;4999978;28;20043;-74
2021/03/18 02:26:08;;;;;;;193.60;27.10;;;;;;;-0.27;86.20;102427.44;5000021;28;20029;-74
2021/03/18 02:28:48;;;;;;;193.70;28.05;;;;;;;-0.18;85.28;102426.59;5015068;28;20040;-76
2021/03/18 02:31:41;;;;;;;288.73;32.80;;;;;;;-0.09;84.74;102423.16;5013726;28;20978;-78
2021/03/18 02:34:22;;;;;;;256.67;30.35;;;;;;;-0.13;85.26;102422.59;5016305;28;20120;-74
2021/03/18 02:36:57;;;;;;;104.22;20.60;;;;;;;-0.03;83.90;102414.69;5016398;28;20075;-77
2021/03/18 02:39:27;;;;;;;193.48;24.98;;;;;;;-0.09;84.73;102418.72;5016231;28;20025;-78
2021/03/18 02:42:01;;;;;;;245.75;29.65;;;;;;;-0.17;85.07;102421.22;5017043;28;20400;-75
2021/03/18 02:44:29;;;;;;;164.32;24.10;;;;;;;-0.06;83.90;102422.88;5001029;28;20043;-74
2021/03/18 02:47:14;;;;;;;129.13;21.40;;;;;;;0.00;83.59;102422.34;5013688;28;20039;-76
2021/03/18 02:49:45;;;;;;;129.75;23.73;;;;;;;0.06;83.10;102421.78;4998120;28;20021;-74
2021/03/18 02:52:19;;;;;;;116.03;20.90;;;;;;;0.03;83.28;102431.78;5018107;28;20728;-75
2021/03/18 02:54:46;;;;;;;237.48;31.50;;;;;;;-0.54;87.14;102428.03;5015977;28;20038;-74
2021/03/18 02:57:14;;;;;;;173.40;24.65;;;;;;;-0.46;86.57;102436.94;5013102;28;20052;-75
2021/03/18 02:59:43;;;;;;;213.93;32.80;;;;;;;-0.97;89.82;102422.06;5016033;28;20033;-74
2021/03/18 03:02:18;;;;;;;256.63;33.13;;;;;;;-0.98;90.18;102432.72;5016297;28;20090;-74
2021/03/18 03:04:45;;;;;;;276.48;32.65;;;;;;;-0.89;90.17;102428.50;5015564;28;20033;-77
2021/03/18 03:07:13;;;;;;;85.88;21.00;;;;;;;-0.70;88.66;102428.56;5016514;28;20036;-76
2021/03/18 03:09:42;;;;;;;76.60;18.85;;;;;;;-0.46;86.64;102418.50;4999508;28;20595;-75
2021/03/18 03:12:08;;;;;;;83.55;18.42;;;;;;;-0.42;86.20;102426.97;5018801;28;20040;-75
2021/03/18 03:14:35;;;;;;;71.57;17.45;;;;;;;-0.36;85.71;102422.03;5015680;28;20957;-76
2021/03/18 03:17:02;;;;;;;54.78;16.75;;;;;;;-0.21;84.24;102418.97;5015399;28;20442;-74
2021/03/18 03:19:29;;;;;;;74.40;16.83;;;;;;;-0.42;85.29;102419.91;5016383;28;20187;-76
2021/03/18 03:21:55;;;;;;;46.42;14.98;;;;;;;-0.43;85.31;102414.78;5006111;28;20025;-79
2021/03/18 03:24:23;;;;;;;55.90;15.88;;;;;;;-0.46;85.49;102425.59;5011748;28;20049;-75
2021/03/18 03:26:50;;;;;;;43.38;14.35;;;;;;;-0.49;85.24;102423.22;5015579;28;21679;-76
2021/03/18 03:29:15;;;;;;;46.92;13.90;;;;;;;-0.41;85.02;102416.31;5000392;28;20037;-75
2021/03/18 03:31:43;;;;;;;44.83;15.60;;;;;;;-0.47;84.76;102422.13;5014644;28;20407;-76
2021/03/18 03:34:08;;;;;;;42.22;13.23;;;;;;;-0.50;84.67;102419.75;4996327;28;20026;-74
2021/03/18 03:36:34;;;;;;;38.67;14.40;;;;;;;-0.34;83.60;102417.44;5013939;28;20036;-76
2021/03/18 03:39:00;;;;;;;42.47;13.77;;;;;;;-0.36;84.01;102421.16;5012855;28;20084;-74
2021/03/18 03:41:25;;;;;;;44.67;13.88;;;;;;;-0.32;83.76;102414.69;5002995;28;20049;-74
2021/03/18 03:43:51;;;;;;;39.13;13.93;;;;;;;-0.24;83.16;102408.72;4999559;28;20031;-77
2021/03/18 03:46:17;;;;;;;36.35;12.32;;;;;;;-0.29;83.76;102406.50;5018861;28;20055;-75
2021/03/18 03:48:43;;;;;;;33.65;12.35;;;;;;;-0.25;83.37;102392.06;5023326;28;20116;-76
2021/03/18 03:51:08;;;;;;;39.25;11.85;;;;;;;-0.36;84.45;102395.69;5021548;28;20025;-75
2021/03/18 03:53:44;;;;;;;33.33;11.18;;;;;;;-0.25;82.97;102391.25;5023672;28;20029;-76
2021/03/18 03:56:13;;;;;;;34.78;12.15;;;;;;;-0.15;82.75;102385.03;5021165;28;20029;-76
2021/03/18 03:58:53;;;;;;;30.40;11.10;;;;;;;-0.07;82.18;102377.25;5019516;28;20037;-75
2021/03/18 04:01:27;;;;;;;39.60;12.38;;;;;;;-0.11;82.41;102383.78;5022748;28;20793;-74
2021/03/18 04:03:58;;;;;;;36.90;13.65;;;;;;;-0.08;82.26;102382.66;5019413;28;20030;-77
2021/03/18 04:06:24;;;;;;;38.80;14.77;;;;;;;-0.03;82.08;102385.69;5002851;28;21316;-74
2021/03/18 04:08:51;;;;;;;33.80;14.30;;;;;;;-0.02;82.35;102388.19;5022857;28;20068;-75
2021/03/18 04:11:18;;;;;;;36.00;13.30;;;;;;;-0.04;83.00;102378.78;5024176;28;20108;-77
2021/03/18 04:13:45;;;;;;;36.90;13.80;;;;;;;-0.12;83.39;102389.19;5007126;28;20109;-74
2021/03/18 04:16:12;;;;;;;42.70;13.65;;;;;;;-0.35;85.61;102393.88;5006708;28;20064;-75
2021/03/18 04:18:42;;;;;;;42.42;14.05;;;;;;;-0.58;86.89;102385.34;5024185;28;21929;-77
2021/03/18 04:21:10;;;;;;;29.83;12.25;;;;;;;-0.78;88.69;102381.00;5008490;28;20033;-77
2021/03/18 04:23:37;;;;;;;27.20;10.77;;;;;;;-1.01;89.66;102389.09;5023783;28;20029;-74
2021/03/18 04:26:04;;;;;;;26.45;11.02;;;;;;;-1.02;90.55;102386.63;5023881;28;20032;-75
2021/03/18 04:28:32;;;;;;;26.17;9.75;;;;;;;-0.98;90.29;102380.13;5021514;28;20025;-77
2021/03/18 04:30:59;;;;;;;26.83;10.80;;;;;;;-0.89;89.80;102383.75;5022917;28;20053;-77
2021/03/18 04:33:27;;;;;;;25.15;10.70;;;;;;;-0.86;89.88;102380.84;5021316;28;20567;-75
2021/03/18 04:35:54;;;;;;;24.48;10.95;;;;;;;-0.64;88.00;102381.47;5022292;28;20029;-75
2021/03/18 04:38:20;;;;;;;23.25;10.88;;;;;;;-0.52;87.06;102384.84;5022036;28;20072;-74
2021/03/18 04:40:47;;;;;;;20.00;9.90;;;;;;;-0.31;85.10;102376.81;5025792;28;20051;-74
2021/03/18 04:43:13;;;;;;;19.98;10.50;;;;;;;-0.18;85.08;102379.19;5021023;28;20074;-77
2021/03/18 04:45:39;;;;;;;20.70;9.40;;;;;;;-0.18;84.94;102372.13;5008599;28;20034;-74
2021/03/18 04:48:06;;;;;;;13.80;7.53;;;;;;;-0.11;83.96;102367.13;5022792;28;20487;-76
2021/03/18 04:50:32;;;;;;;14.15;7.50;;;;;;;-0.21;84.28;102371.56;5023600;28;20048;-75
2021/03/18 04:52:58;;;;;;;10.48;6.55;;;;;;;-0.15;83.99;102363.94;5000938;28;20738;-76
2021/03/18 04:55:25;;;;;;;11.10;6.25;;;;;;;-0.08;83.44;102366.84;5018435;28;20033;-76
2021/03/18 04:57:58;;;;;;;10.85;6.03;;;;;;;-0.03;82.83;102372.53;5008578;28;20045;-74
2021/03/18 05:00:25;;;;;;;10.80;5.80;;;;;;;-0.01;83.34;102376.69;5016972;28;20116;-77
2021/03/18 05:02:52;;;;;;;9.80;6.07;;;;;;;0.05;82.57;102374.50;5017774;28;20025;-75
2021/03/18 05:05:20;;;;;;;11.15;6.35;;;;;;;-0.03;83.15;102377.81;5004043;28;20037;-74
2021/03/18 05:07:48;;;;;;;10.55;6.13;;;;;;;-0.05;83.30;102363.94;5004177;28;20030;-74
2021/03/18 05:10:17;;;;;;;10.48;6.53;;;;;;;0.04;82.75;102371.03;5005744;28;20029;-74
2021/03/18 05:12:44;;;;;;;10.77;6.03;;;;;;;0.07;82.52;102362.00;5020307;28;20033;-77
2021/03/18 05:15:12;;;;;;;10.48;6.75;;;;;;;0.15;81.92;102357.69;5001817;28;20033;-78
2021/03/18 05:17:38;;;;;;;10.02;5.82;;;;;;;0.05;83.11;102359.50;5018282;28;20032;-75
2021/03/18 05:20:06;;;;;;;12.32;6.70;;;;;;;0.11;82.54;102351.03;5017427;28;20037;-76
2021/03/18 05:22:32;;;;;;;12.15;6.55;;;;;;;0.15;82.13;102355.03;5018673;28;20570;-77
2021/03/18 05:24:59;;;;;;;10.63;6.20;;;;;;;0.17;82.65;102360.16;5017723;28;20032;-75
2021/03/18 05:27:24;;;;;;;12.20;6.88;;;;;;;0.14;82.85;102366.56;5016139;28;20021;-74
2021/03/18 05:29:50;;;;;;;10.77;6.68;;;;;;;0.20;82.50;102363.38;5019209;28;20064;-74
2021/03/18 05:32:15;;;;;;;11.10;6.97;;;;;;;0.13;83.23;102349.09;5018196;28;20456;-75
2021/03/18 05:34:41;;;;;;;11.40;6.47;;;;;;;-0.12;84.94;102339.13;5016829;28;20560;-76
2021/03/18 05:37:07;;;;;;;10.13;6.25;;;;;;;-0.29;86.04;102343.28;5006898;28;20117;-74
2021/03/18 05:39:32;;;;;;;10.70;6.00;;;;;;;-0.25;85.29;102349.09;5007273;28;20507;-72
2021/03/18 05:42:01;;;;;;;9.98;5.72;;;;;;;-0.25;84.99;102351.72;4987968;28;20099;-73
2021/03/18 05:44:27;;;;;;;12.45;6.72;;;;;;;-0.21;85.03;102353.13;5004438;28;20105;-72
2021/03/18 05:46:53;;;;;;;7.72;5.88;;;;;;;-0.09;83.67;102344.94;5004614;28;20459;-73
2021/03/18 05:49:19;;;;;;;10.38;6.55;;;;;;;0.04;83.00;102349.94;5002153;28;20037;-73
2021/03/18 05:51:49;;;;;;;11.18;6.80;;;;;;;0.04;83.39;102349.94;5006029;28;20034;-72
2021/03/18 05:54:19;;;;;;;10.52;5.95;;;;;;;-0.07;84.07;102352.72;5005309;28;20045;-72
2021/03/18 05:56:44;;;;;;;14.52;7.18;;;;;;;-0.10;84.36;102345.91;4984343;28;20029;-72
2021/03/18 05:59:12;;;;;;;11.05;6.97;;;;;;;-0.15;84.63;102345.50;5006883;28;20241;-72
2021/03/18 06:01:40;;;;;;;11.80;6.63;;;;;;;-0.01;83.39;102349.50;5003545;28;20021;-72
2021/03/18 06:04:08;;;;;;;10.63;6.75;;;;;;;-0.06;84.02;102349.09;5002047;28;20736;-73
2021/03/18 06:06:34;;;;;;;13.00;7.25;;;;;;;0.04;83.55;102360.47;5005435;28;20079;-72
2021/03/18 06:09:01;;;;;;;13.25;7.80;;;;;;;0.12;83.04;102352.69;5001517;28;20033;-73
2021/03/18 06:11:27;;;;;;;14.30;7.22;;;;;;;0.25;83.04;102349.78;5015035;28;20033;-72
2021/03/18 06:13:52;;;;;;;10.80;7.43;;;;;;;0.31;83.12;102346.56;5008562;28;20033;-72
2021/03/18 06:16:19;;;;;;;11.00;6.20;;;;;;;0.55;81.44;102338.19;5007602;28;20978;-73
2021/03/18 06:18:45;;;;;;;11.23;7.22;;;;;;;0.65;80.69;102338.97;5006922;28;20315;-72
2021/03/18 06:21:12;;;;;;;10.57;6.57;;;;;;;0.61;81.08;102342.88;5008897;28;20037;-72
2021/03/18 06:23:37;;;;;;;12.57;7.65;;;;;;;0.80;80.19;102341.97;5006826;28;20032;-72
2021/03/18 06:26:04;;;;;;;12.80;8.10;;;;;;;0.72;80.64;102336.59;5007947;28;20388;-73
2021/03/18 06:28:32;;;;;;;20.13;11.07;;;;;;;0.97;79.34;102332.47;5007438;28;22172;-73
2021/03/18 06:31:01;;;;;;;13.90;8.23;;;;;;;0.88;79.48;102326.25;5003369;28;20071;-72
2021/03/18 06:33:30;;;;;;;13.63;8.75;;;;;;;0.77;80.72;102327.28;5007276;28;20051;-72
2021/03/18 06:35:56;;;;;;;12.95;7.78;;;;;;;0.85;80.83;102327.38;5008566;28;20292;-72
2021/03/18 06:38:30;;;;;;;10.38;6.63;;;;;;;1.36;79.17;102320.72;5001918;28;20040;-73
2021/03/18 06:40:56;;;;;;;11.35;6.90;;;;;;;1.81;76.94;102323.31;5007934;28;20033;-73
2021/03/18 06:43:39;;;;;;;9.95;6.50;;;;;;;2.20;74.90;102319.47;5004373;28;20044;-72
2021/03/18 06:46:17;;;;;;;11.18;6.55;;;;;;;2.59;74.15;102326.00;5006211;28;20032;-73
2021/03/18 06:48:43;;;;;;;8.50;5.78;;;;;;;2.87;73.00;102315.19;5010100;28;20067;-73
2021/03/18 06:51:29;;;;;;;9.77;6.53;;;;;;;2.67;72.99;102317.25;5004943;28;20843;-73
2021/03/18 06:53:55;;;;;;;12.40;6.57;;;;;;;2.71;72.75;102311.50;5004507;28;20506;-73
2021/03/18 06:56:31;;;;;;;13.13;7.65;;;;;;;2.70;72.92;102315.16;5005503;28;20033;-73
2021/03/18 06:58:57;;;;;;;12.50;8.15;;;;;;;2.56;73.58;102312.25;5004773;28;20491;-73
2021/03/18 07:01:28;;;;;;;13.93;8.60;;;;;;;2.54;74.35;102314.22;5004108;28;20033;-73
2021/03/18 07:04:06;;;;;;;11.23;7.10;;;;;;;2.62;74.15;102307.16;5004989;28;20411;-72
2021/03/18 07:06:34;;;;;;;11.38;6.57;;;;;;;2.39;75.39;102308.69;5006096;28;20043;-72
2021/03/18 07:09:27;;;;;;;10.35;6.60;;;;;;;1.30;80.66;102321.31;5004281;28;20520;-73
2021/03/18 07:11:58;;;;;;;11.93;6.63;;;;;;;1.04;82.55;102318.53;5005614;28;20029;-72
2021/03/18 07:14:49;;;;;;;11.27;6.07;;;;;;;1.06;82.99;102316.56;5005034;28;20033;-72
2021/03/18 07:17:18;;;;;;;11.25;6.15;;;;;;;0.90;84.83;102321.69;5004985;28;20087;-72
2021/03/18 07:19:45;;;;;;;11.30;6.70;;;;;;;1.03;84.41;102319.50;5003930;28;20029;-72
2021/03/18 07:22:19;;;;;;;13.93;8.02;;;;;;;1.06;84.67;102316.56;5004402;28;20033;-73
2021/03/18 07:24:54;;;;;;;16.35;8.00;;;;;;;1.28;84.10;102319.81;4988463;28;20025;-73
2021/03/18 07:27:21;;;;;;;15.52;8.63;;;;;;;1.07;84.85;102312.13;4987899;28;20064;-73
2021/03/18 07:29:49;;;;;;;14.07;8.57;;;;;;;1.42;84.24;102306.06;5004868;28;20099;-73
2021/03/18 07:32:15;;;;;;;15.77;9.05;;;;;;;1.42;84.42;102304.25;5007002;28;20029;-73
2021/03/18 07:34:42;;;;;;;15.50;9.63;;;;;;;1.62;83.40;102298.84;5005439;28;20033;-73
2021/03/18 07:37:10;;;;;;;20.02;11.85;;;;;;;1.55;83.71;102310.97;5006293;28;20121;-73
2021/03/18 07:39:37;;;;;;;17.70;9.00;;;;;;;1.49;84.80;102309.78;5004475;28;20633;-73
2021/03/18 07:42:04;;;;;;;16.40;8.98;;;;;;;1.64;83.18;102313.56;5006349;28;20113;-73
2021/03/18 07:44:30;;;;;;;15.75;9.18;;;;;;;2.04;80.63;102297.22;5004510;28;20169;-73
2021/03/18 07:46:57;;;;;;;19.77;9.98;;;;;;;1.81;81.78;102311.91;5004598;28;20483;-73
2021/03/18 07:49:43;;;;;;;18.33;9.45;;;;;;;1.91;81.80;102301.22;5006111;28;20029;-73
2021/03/18 07:52:15;;;;;;;18.40;9.15;;;;;;;1.85;82.59;102302.69;4989982;28;20091;-73
2021/03/18 07:54:45;;;;;;;14.70;6.82;;;;;;;1.70;82.67;102297.09;5004877;28;20037;-73
2021/03/18 07:57:15;;;;;;;18.60;10.52;;;;;;;1.95;82.27;102287.53;4985075;28;20029;-73
2021/03/18 07:59:42;;;;;;;21.50;10.55;;;;;;;2.24;81.35;102295.19;5004991;28;20089;-73
2021/03/18 08:02:14;;;;;;;19.42;9.98;;;;;;;2.69;79.35;102284.38;5002828;28;20196;-73
2021/03/18 08:04:45;;;;;;;22.23;10.77;;;;;;;2.81;78.69;102284.06;5002768;28;20082;-74
2021/03/18 08:07:12;;;;;;;16.58;8.38;;;;;;;2.41;80.08;102282.91;4984533;28;20029;-73
2021/03/18 08:09:37;;;;;;;26.63;12.35;;;;;;;2.63;79.32;102292.94;5000804;28;20025;-74
2021/03/18 08:12:03;;;;;;;20.10;10.43;;;;;;;2.75;78.59;102290.03;5000430;28;20025;-73
2021/03/18 08:14:29;;;;;;;22.75;11.25;;;;;;;2.74;78.24;102286.53;5001216;28;20502;-74
2021/03/18 08:16:55;;;;;;;22.48;12.43;;;;;;;2.55;78.84;102294.72;4983307;28;20075;-74
2021/03/18 08:19:21;;;;;;;19.80;11.27;;;;;;;2.61;78.64;102288.78;5002500;28;20025;-73
2021/03/18 08:21:49;;;;;;;20.48;11.90;;;;;;;2.71;78.09;102285.06;4999967;28;20132;-74
2021/03/18 08:24:16;;;;;;;19.70;10.68;;;;;;;2.62;78.50;102288.63;5000750;28;20429;-73
2021/03/18 08:26:52;;;;;;;16.08;9.55;;;;;;;2.93;77.16;102286.28;4999118;28;20033;-73
2021/03/18 08:29:20;;;;;;;18.30;9.57;;;;;;;2.92;77.48;102286.44;4999639;28;20040;-74
2021/03/18 08:31:48;;;;;;;18.73;9.55;;;;;;;2.12;81.50;102294.59;4984213;28;20098;-74
2021/03/18 08:34:14;;;;;;;20.30;10.73;;;;;;;2.21;80.99;102284.94;4985557;28;20026;-73
2021/03/18 08:36:47;;;;;;;20.95;10.50;;;;;;;2.20;81.41;102285.91;5005616;28;20035;-74
2021/03/18 08:39:40;;;;;;;19.92;10.32;;;;;;;2.44;80.41;102285.22;5005503;28;20407;-74
2021/03/18 08:42:31;;;;;;;18.02;10.27;;;;;;;2.42;80.41;102288.03;4984863;28;20173;-74
2021/03/18 08:45:09;;;;;;;17.13;9.50;;;;;;;2.65;79.41;102285.66;4986677;28;20078;-74
2021/03/18 08:47:40;;;;;;;18.10;9.35;;;;;;;2.71;79.22;102284.22;5004725;28;20167;-74
2021/03/18 08:50:30;;;;;;;20.65;9.52;;;;;;;2.78;79.01;102281.75;5004647;28;20588;-73
2021/03/18 08:52:58;;;;;;;16.77;8.82;;;;;;;2.79;78.85;102286.06;4995640;28;20395;-77
2021/03/18 08:55:35;;;;;;;19.98;10.10;;;;;;;2.55;80.54;102278.84;5005497;28;20680;-74
2021/03/18 08:58:01;;;;;;;20.10;11.18;;;;;;;2.37;81.71;102284.22;5003576;28;20675;-73
2021/03/18 09:00:27;;;;;;;18.00;10.18;;;;;;;2.74;79.98;102281.25;5004527;28;20084;-73
2021/03/18 09:02:52;;;;;;;21.05;11.32;;;;;;;2.94;79.73;102279.16;4984369;28;20033;-74
2021/03/18 09:05:20;;;;;;;20.58;9.90;;;;;;;2.94;79.66;102276.53;5003852;28;20497;-73
2021/03/18 09:07:50;;;;;;;19.40;10.45;;;;;;;3.02;78.83;102277.38;5002619;28;20482;-73
2021/03/18 09:10:19;;;;;;;18.77;10.15;;;;;;;3.08;78.48;102281.22;5002548;28;20040;-73
2021/03/18 09:12:46;;;;;;;19.67;10.35;;;;;;;3.19;78.11;102278.25;5002912;28;20031;-73
2021/03/18 09:15:21;;;;;;;21.15;11.68;;;;;;;3.30;77.89;102267.34;5004178;28;20546;-73
2021/03/18 09:17:50;;;;;;;17.73;10.27;;;;;;;3.55;76.90;102277.97;5004320;28;20040;-73
2021/03/18 09:20:20;;;;;;;22.60;10.98;;;;;;;3.77;76.57;102276.47;5004194;28;20033;-74
2021/03/18 09:22:46;;;;;;;17.40;9.35;;;;;;;4.01;75.35;102273.00;5004456;28;20195;-74
2021/03/18 09:25:13;;;;;;;19.48;10.48;;;;;;;4.20;74.90;102272.66;4983882;28;20022;-73
2021/03/18 09:27:43;;;;;;;19.25;10.52;;;;;;;4.41;74.28;102269.44;5002229;28;20324;-74
2021/03/18 09:30:22;;;;;;;18.33;10.80;;;;;;;4.65;73.89;102271.19;4984930;28;20061;-74
2021/03/18 09:32:49;;;;;;;25.60;12.25;;;;;;;4.90;73.04;102263.97;4982486;28;20032;-73
2021/03/18 09:35:15;;;;;;;18.85;11.45;;;;;;;5.03;72.97;102265.06;5004936;28;20033;-73
2021/03/18 09:37:43;;;;;;;22.02;11.57;;;;;;;5.18;72.54;102264.28;5003173;28;20040;-74
2021/03/18 09:40:09;;;;;;;19.27;11.82;;;;;;;5.20;72.41;102264.94;4987296;28;20399;-73
2021/03/18 09:42:36;;;;;;;20.60;11.45;;;;;;;5.22;71.45;102273.59;5003729;28;20080;-73
2021/03/18 09:45:04;;;;;;;23.00;12.77;;;;;;;5.14;71.73;102266.47;5004074;28;20056;-73
2021/03/18 09:47:29;;;;;;;21.20;12.68;;;;;;;5.05;71.18;102259.56;4986521;28;20563;-74
2021/03/18 09:49:55;;;;;;;25.08;14.55;;;;;;;4.76;72.98;102257.53;5003671;28;20516;-73
2021/03/18 09:52:25;;;;;;;30.80;15.70;;;;;;;4.39;74.19;102261.66;5002843;28;20686;-74
2021/03/18 09:54:51;;;;;;;24.40;13.98;;;;;;;4.55;73.36;102261.59;5001894;28;20039;-74
2021/03/18 09:57:17;;;;;;;23.25;13.20;;;;;;;4.61;73.55;102264.56;5002852;28;21158;-74
2021/03/18 09:59:48;;;;;;;27.70;15.50;;;;;;;4.05;75.39;102266.38;4985227;28;20060;-73
2021/03/18 10:02:16;;;;;;;25.80;15.10;;;;;;;3.81;76.95;102256.63;4982799;28;20496;-74
2021/03/18 10:04:43;;;;;;;23.55;13.80;;;;;;;4.04;76.15;102251.44;5003293;28;20102;-73
2021/03/18 10:07:08;;;;;;;22.85;14.18;;;;;;;4.32;74.59;102257.22;4983202;28;20704;-74
2021/03/18 10:09:42;;;;;;;23.95;13.35;;;;;;;4.42;74.03;102252.53;4983292;28;20049;-74
2021/03/18 10:12:11;;;;;;;23.52;12.70;;;;;;;4.62;73.78;102250.28;5002901;28;20033;-73
2021/03/18 10:14:50;;;;;;;19.83;10.77;;;;;;;4.91;72.85;102249.69;5003355;28;20029;-73
2021/03/18 10:17:21;;;;;;;13.13;7.72;;;;;;;5.19;72.21;102242.03;4985169;28;20416;-74
2021/03/18 10:20:13;;;;;;;12.52;8.02;;;;;;;5.56;70.50;102243.91;5002037;28;20055;-74
2021/03/18 10:22:46;;;;;;;14.25;8.88;;;;;;;5.94;68.53;102235.00;5005816;28;20175;-74
2021/03/18 10:25:23;;;;;;;15.10;9.95;;;;;;;6.11;67.78;102232.19;5003491;28;20503;-74
2021/03/18 10:27:51;;;;;;;18.00;10.10;;;;;;;5.83;68.76;102229.25;4990382;28;20033;-74
2021/03/18 10:30:21;;;;;;;12.80;8.43;;;;;;;5.63;68.45;102232.41;5004290;28;21593;-74
2021/03/18 10:33:20;;;;;;;11.30;7.25;;;;;;;4.92;69.25;102230.91;4988694;28;20025;-73
2021/03/18 10:35:58;;;;;;;11.48;8.32;;;;;;;5.29;69.68;102226.69;4975136;28;20061;-74
2021/03/18 10:38:30;;;;;;;11.55;7.05;;;;;;;5.55;69.37;102227.13;4992173;28;20088;-74
2021/03/18 10:41:10;;;;;;;9.73;6.32;;;;;;;5.73;68.47;102217.00;4991093;28;20126;-74
2021/03/18 10:43:43;;;;;;;9.80;6.63;;;;;;;5.62;67.38;102213.97;5007507;28;20029;-74
2021/03/18 10:46:11;;;;;;;9.38;6.28;;;;;;;5.59;68.61;102206.38;5006571;28;21730;-74
2021/03/18 10:48:39;;;;;;;12.75;7.30;;;;;;;5.38;68.31;102207.84;5005460;28;20044;-74
2021/03/18 10:51:06;;;;;;;13.45;7.78;;;;;;;5.15;68.63;102209.66;5002895;28;20115;-74
2021/03/18 10:53:40;;;;;;;12.85;7.88;;;;;;;5.34;68.51;102208.38;5005292;28;20033;-74
2021/03/18 10:56:09;;;;;;;10.80;7.40;;;;;;;5.79;67.53;102201.38;5005520;28;20708;-74
2021/03/18 10:58:35;;;;;;;13.80;8.40;;;;;;;6.45;66.13;102197.00;5005041;28;20312;-74
2021/03/18 11:01:04;;;;;;;13.35;9.20;;;;;;;6.77;65.84;102196.56;5002925;28;21793;-74
2021/03/18 11:03:32;;;;;;;11.02;7.70;;;;;;;7.04;65.40;102189.72;5003998;28;20072;-74
2021/03/18 11:05:59;;;;;;;15.63;9.75;;;;;;;6.97;62.95;102188.78;5003392;28;20040;-74
2021/03/18 11:08:34;;;;;;;14.57;10.07;;;;;;;6.38;64.38;102190.75;4985587;28;20269;-74
2021/03/18 11:11:02;;;;;;;14.23;9.43;;;;;;;6.72;63.15;102183.00;4984647;28;20060;-74
2021/03/18 11:13:31;;;;;;;13.00;9.15;;;;;;;7.62;62.61;102178.94;4981541;28;20041;-74
2021/03/18 11:16:01;;;;;;;14.30;9.85;;;;;;;8.06;61.91;102174.09;5006466;28;20036;-74
2021/03/18 11:18:44;;;;;;;14.05;9.32;;;;;;;8.13;61.23;102172.31;5006981;28;20036;-74
2021/03/18 11:21:21;;;;;;;14.18;9.23;;;;;;;7.72;60.47;102168.75;4992319;28;20044;-74
2021/03/18 11:23:48;;;;;;;14.32;9.50;;;;;;;7.43;62.90;102164.44;5006811;28;20060;-74
2021/03/18 11:26:14;;;;;;;14.38;10.18;;;;;;;7.27;63.09;102165.53;5005649;28;20596;-74